Time;durP1;ratioP1;P1;durP2;ratioP2;P2;SDS_P1;SDS_P2;PMS_P1;PMS_P2;Temp;Humidity;BMP_temperature;BMP_pressure;BME280_temperature;BME280_humidity;BME280_pressure;Samples;Min_cycle;Max_cycle;Signal;HPM_P1;HPM_P2
2021/05/23 00:01:04;;;;;;;;;0.75;0.00;;;;;11.12;62.07;100896.75;5059395;28;45384;-44
2021/05/23 00:03:29;;;;;;;;;1.00;1.00;;;;;11.16;62.08;100910.72;5060464;28;45262;-45
2021/05/23 00:05:55;;;;;;;;;1.00;1.00;;;;;11.09;62.34;100902.03;5063106;28;45507;-44
2021/05/23 00:08:21;;;;;;;;;0.25;0.25;;;;;11.10;62.40;100913.44;5062835;28;45593;-43
2021/05/23 00:10:48;;;;;;;;;0.00;0.00;;;;;11.01;62.71;100910.03;5072591;28;46143;-44
2021/05/23 00:13:17;;;;;;;;;1.25;1.25;;;;;11.02;62.90;100908.28;5065955;28;45225;-43
2021/05/23 00:15:45;;;;;;;;;1.75;1.75;;;;;10.96;62.94;100911.84;5062924;28;45311;-48
2021/05/23 00:18:11;;;;;;;;;1.00;1.00;;;;;10.92;63.25;100907.53;5062606;28;45426;-43
2021/05/23 00:20:37;;;;;;;;;1.00;0.75;;;;;10.87;63.05;100917.25;5051827;28;47273;-44
2021/05/23 00:23:04;;;;;;;;;1.00;1.00;;;;;10.86;62.99;100916.34;5065369;28;45435;-44
2021/05/23 00:25:30;;;;;;;;;1.75;1.75;;;;;10.87;63.13;100922.50;5062397;28;45265;-45
2021/05/23 00:27:55;;;;;;;;;0.00;0.00;;;;;10.88;63.29;100919.84;5044192;28;45341;-44
2021/05/23 00:30:21;;;;;;;;;1.00;0.00;;;;;10.95;63.06;100925.03;5062456;28;46436;-43
2021/05/23 00:32:47;;;;;;;;;0.75;0.25;;;;;11.01;63.02;100919.69;5062409;28;45394;-44
2021/05/23 00:35:14;;;;;;;;;2.00;2.00;;;;;11.06;62.74;100925.75;5062531;28;45573;-44
2021/05/23 00:37:40;;;;;;;;;2.00;1.00;;;;;11.10;62.96;100927.44;5062339;28;45164;-43
2021/05/23 00:40:07;;;;;;;;;1.75;1.75;;;;;11.10;62.59;100924.81;5062064;28;45205;-43
2021/05/23 00:42:32;;;;;;;;;3.00;1.00;;;;;11.13;62.85;100922.16;5062012;28;45227;-44
2021/05/23 00:44:58;;;;;;;;;1.50;0.00;;;;;11.12;62.65;100917.78;5044398;28;45380;-44
2021/05/23 00:47:24;;;;;;;;;2.00;0.50;;;;;11.17;62.68;100922.97;5062217;28;45471;-44
2021/05/23 00:49:49;;;;;;;;;3.50;2.00;;;;;11.17;62.55;100928.22;5062263;28;45322;-45
2021/05/23 00:52:15;;;;;;;;;2.75;2.50;;;;;11.14;62.87;100923.03;5062005;28;45237;-43
2021/05/23 00:54:40;;;;;;;;;1.00;1.00;;;;;11.10;62.67;100927.44;5044472;28;45340;-43
2021/05/23 00:57:05;;;;;;;;;2.75;1.00;;;;;11.04;62.67;100917.00;5043680;28;45790;-45
2021/05/23 00:59:32;;;;;;;;;0.50;0.50;;;;;11.00;63.22;100925.84;5062082;28;45431;-47
2021/05/23 01:01:57;;;;;;;;;2.50;1.00;;;;;10.94;63.49;100926.78;5061916;28;45281;-45
2021/05/23 01:04:23;;;;;;;;;2.00;2.00;;;;;10.87;63.52;100927.75;5044040;28;45268;-45
2021/05/23 01:06:49;;;;;;;;;1.00;1.00;;;;;10.85;63.35;100919.00;5061852;28;45248;-43
2021/05/23 01:09:15;;;;;;;;;1.00;1.00;;;;;10.84;63.66;100926.03;5062114;28;46369;-44
2021/05/23 01:11:40;;;;;;;;;0.00;0.00;;;;;10.80;63.34;100924.31;5074860;28;45242;-44
2021/05/23 01:14:42;;;;;;;;;0.75;0.75;;;;;10.79;63.89;100924.34;5062175;28;45278;-43
2021/05/23 01:17:09;;;;;;;;;0.25;0.25;;;;;10.75;63.92;100922.66;5043653;28;46393;-44
2021/05/23 01:20:01;;;;;;;;;2.00;1.25;;;;;10.83;63.80;100926.94;5060151;28;47465;-45
2021/05/23 01:22:40;;;;;;;;;0.75;0.75;;;;;10.85;63.68;100929.53;5061855;28;45402;-45
2021/05/23 01:25:11;;;;;;;;;1.00;1.00;;;;;10.87;63.65;100930.38;5061685;28;45242;-43
2021/05/23 01:27:38;;;;;;;;;2.00;2.00;;;;;10.88;63.51;100926.88;5061231;28;45429;-48
2021/05/23 01:30:09;;;;;;;;;1.25;1.25;;;;;10.92;63.23;100925.94;5061637;28;45214;-47
2021/05/23 01:32:36;;;;;;;;;2.00;2.00;;;;;10.94;63.33;100929.41;5061319;28;45383;-45
2021/05/23 01:35:08;;;;;;;;;1.00;1.00;;;;;10.96;63.13;100932.91;5061717;28;45307;-50
2021/05/23 01:37:34;;;;;;;;;2.00;1.00;;;;;10.98;63.16;100931.13;5061436;28;45381;-45
2021/05/23 01:39:59;;;;;;;;;1.75;1.75;;;;;10.98;62.76;100939.00;5061150;28;45478;-47
2021/05/23 01:42:25;;;;;;;;;2.00;0.00;;;;;10.98;62.97;100936.38;5061101;28;45448;-45
2021/05/23 01:44:51;;;;;;;;;1.00;1.00;;;;;10.97;63.15;100944.25;5061710;28;45288;-46
2021/05/23 01:47:17;;;;;;;;;1.25;1.25;;;;;10.98;63.13;100946.00;5061534;28;45185;-45
2021/05/23 01:49:43;;;;;;;;;1.00;1.00;;;;;10.99;63.07;100947.75;5043365;28;48174;-45
2021/05/23 01:52:09;;;;;;;;;1.75;1.00;;;;;10.95;63.16;100943.44;5061129;28;45272;-44
2021/05/23 01:54:35;;;;;;;;;2.00;1.00;;;;;10.98;62.88;100940.75;5061389;28;45221;-43
2021/05/23 01:57:00;;;;;;;;;2.00;0.50;;;;;10.99;63.02;100943.38;5060922;28;45248;-43
2021/05/23 01:59:26;;;;;;;;;1.00;0.75;;;;;11.00;63.04;100939.84;5042991;28;48322;-44
2021/05/23 02:01:51;;;;;;;;;0.00;0.00;;;;;10.98;63.05;100939.00;5061131;28;45220;-43
2021/05/23 02:04:17;;;;;;;;;1.50;1.50;;;;;10.97;63.27;100942.53;5061268;28;45750;-44
2021/05/23 02:06:42;;;;;;;;;2.00;1.00;;;;;11.03;63.07;100950.34;5060838;28;45343;-43
2021/05/23 02:09:07;;;;;;;;;1.00;1.00;;;;;10.99;63.21;100943.38;5060994;28;46138;-45
2021/05/23 02:11:33;;;;;;;;;0.00;0.00;;;;;10.99;63.09;100946.03;5074087;28;45281;-43
2021/05/23 02:13:58;;;;;;;;;0.25;0.25;;;;;11.00;63.60;100942.47;5061123;28;45514;-44
2021/05/23 02:16:24;;;;;;;;;2.00;2.00;;;;;10.99;63.44;100950.38;5042651;28;45284;-45
2021/05/23 02:18:49;;;;;;;;;1.00;0.00;;;;;10.97;63.54;100942.53;5042785;28;47306;-44
2021/05/23 02:21:15;;;;;;;;;2.75;1.00;;;;;10.99;63.34;100951.28;5052577;28;45301;-46
2021/05/23 02:23:56;;;;;;;;;0.00;0.00;;;;;11.03;63.51;100952.06;5061016;28;45277;-43
2021/05/23 02:26:22;;;;;;;;;1.00;0.50;;;;;11.05;63.46;100959.06;5058561;28;45592;-44
2021/05/23 02:28:48;;;;;;;;;0.00;0.00;;;;;11.03;63.48;100958.22;5060549;28;45410;-44
2021/05/23 02:31:14;;;;;;;;;0.50;0.00;;;;;11.02;63.08;100959.13;5060465;28;45341;-43
2021/05/23 02:33:39;;;;;;;;;0.00;0.00;;;;;11.02;63.44;100958.25;5042856;28;45327;-43
2021/05/23 02:36:05;;;;;;;;;1.25;1.25;;;;;11.04;63.50;100956.47;5060494;28;45672;-45
2021/05/23 02:38:30;;;;;;;;;1.00;1.00;;;;;11.03;63.61;100959.97;5060526;28;46173;-43
2021/05/23 02:40:56;;;;;;;;;1.00;1.00;;;;;10.99;63.46;100959.16;5058863;28;45463;-42
2021/05/23 02:43:22;;;;;;;;;1.25;0.50;;;;;11.03;63.68;100965.22;5060555;28;45174;-45
2021/05/23 02:45:48;;;;;;;;;1.00;1.00;;;;;11.00;63.62;100966.13;5058983;28;45405;-44
2021/05/23 02:48:14;;;;;;;;;1.00;1.00;;;;;11.00;63.72;100970.53;5060435;28;45666;-45
2021/05/23 02:50:43;;;;;;;;;0.00;0.00;;;;;11.00;63.72;100967.91;5060231;28;45384;-43
2021/05/23 02:53:10;;;;;;;;;1.00;1.00;;;;;11.02;63.65;100964.38;5060295;28;45436;-45
2021/05/23 02:55:37;;;;;;;;;0.00;0.00;;;;;11.06;63.90;100973.09;5059899;28;45525;-43
2021/05/23 02:58:05;;;;;;;;;1.00;1.00;;;;;11.03;63.80;100979.28;5060087;28;45234;-43
2021/05/23 03:00:31;;;;;;;;;1.75;0.00;;;;;11.07;63.95;100980.09;5042232;28;45387;-43
2021/05/23 03:02:56;;;;;;;;;0.00;0.00;;;;;11.06;63.80;100971.31;5060396;28;45312;-45
2021/05/23 03:05:23;;;;;;;;;0.75;0.50;;;;;11.10;63.17;100976.56;5042037;28;45294;-45
2021/05/23 03:07:51;;;;;;;;;0.25;0.25;;;;;11.09;63.83;100982.72;5060048;28;46173;-44
2021/05/23 03:10:30;;;;;;;;;1.00;1.00;;;;;11.03;64.11;100975.75;5047150;28;45388;-46
2021/05/23 03:12:56;;;;;;;;;0.75;0.75;;;;;11.00;64.41;100978.44;5064624;28;45737;-45
2021/05/23 03:15:24;;;;;;;;;1.50;1.50;;;;;10.98;64.10;100988.09;5060118;28;45216;-42
2021/05/23 03:17:50;;;;;;;;;0.00;0.00;;;;;10.99;63.88;100981.94;5041653;28;47409;-44
2021/05/23 03:20:16;;;;;;;;;0.50;0.50;;;;;11.10;63.71;100982.69;5064081;28;45409;-43
2021/05/23 03:22:44;;;;;;;;;1.00;1.00;;;;;11.14;63.52;100984.38;5065832;28;45203;-42
2021/05/23 03:25:11;;;;;;;;;0.00;0.00;;;;;11.10;63.56;100981.81;5059768;28;45546;-43
2021/05/23 03:27:37;;;;;;;;;1.00;0.25;;;;;11.19;63.46;100982.59;5059575;28;46349;-43
2021/05/23 03:30:05;;;;;;;;;1.00;1.00;;;;;11.25;63.25;100986.03;5059878;28;45457;-42
2021/05/23 03:32:30;;;;;;;;;0.50;0.50;;;;;11.30;63.29;100985.06;5041786;28;45414;-45
2021/05/23 03:34:55;;;;;;;;;2.00;1.00;;;;;11.30;63.19;100985.06;5059670;28;45287;-42
2021/05/23 03:37:21;;;;;;;;;1.00;1.00;;;;;11.28;63.25;100975.44;5059848;28;45557;-42
2021/05/23 03:39:46;;;;;;;;;1.00;1.00;;;;;11.29;63.50;100985.94;5063152;28;45416;-43
2021/05/23 03:42:11;;;;;;;;;1.00;1.00;;;;;11.29;63.31;100996.47;5063324;28;45332;-43
2021/05/23 03:44:37;;;;;;;;;0.00;0.00;;;;;11.28;63.59;100989.50;5063618;28;45248;-44
2021/05/23 03:47:02;;;;;;;;;1.50;1.50;;;;;11.28;63.38;100984.22;5063085;28;46035;-44
2021/05/23 03:49:28;;;;;;;;;1.25;1.00;;;;;11.32;63.49;100996.44;5063293;28;45220;-43
2021/05/23 03:51:53;;;;;;;;;0.00;0.00;;;;;11.32;63.51;100998.19;5063258;28;45256;-47
2021/05/23 03:54:18;;;;;;;;;0.00;0.00;;;;;11.35;63.40;101009.53;5063264;28;45186;-47
2021/05/23 03:56:44;;;;;;;;;1.00;1.00;;;;;11.31;63.63;101012.25;5062672;28;46193;-47
2021/05/23 03:59:09;;;;;;;;;1.00;1.00;;;;;11.28;63.67;101012.28;5063207;28;45273;-43
2021/05/23 04:01:34;;;;;;;;;1.00;1.00;;;;;11.25;64.12;101012.34;5062917;28;45221;-43
2021/05/23 04:04:01;;;;;;;;;0.00;0.00;;;;;11.27;64.05;101013.16;5044875;28;45307;-43
2021/05/23 04:06:27;;;;;;;;;0.75;0.75;;;;;11.21;63.91;101017.63;5061431;28;46425;-45
2021/05/23 04:08:53;;;;;;;;;0.75;0.75;;;;;11.24;63.86;101015.84;5061659;28;45387;-43
2021/05/23 04:11:22;;;;;;;;;1.75;1.75;;;;;11.25;64.01;101025.47;5072906;28;45428;-44
2021/05/23 04:13:48;;;;;;;;;1.50;1.50;;;;;11.26;63.90;101019.31;5083034;27;45244;-45
2021/05/23 04:16:14;;;;;;;;;0.00;0.00;;;;;11.24;63.85;101023.75;5082733;28;46968;-44
2021/05/23 04:18:39;;;;;;;;;2.00;2.00;;;;;11.27;64.12;101018.41;5083050;28;45259;-43
2021/05/23 04:21:05;;;;;;;;;3.00;1.25;;;;;11.25;64.09;101023.72;5081627;28;45243;-42
2021/05/23 04:23:31;;;;;;;;;1.00;0.00;;;;;11.13;64.23;101014.22;5062676;28;45219;-45
2021/05/23 04:25:56;;;;;;;;;1.75;1.75;;;;;11.06;64.66;101018.66;5062319;28;46111;-43
2021/05/23 04:28:23;;;;;;;;;2.25;2.25;;;;;11.00;64.55;101010.00;5062371;28;45530;-43
2021/05/23 04:30:48;;;;;;;;;2.00;2.00;;;;;10.97;64.77;101016.16;5061466;28;45260;-44
2021/05/23 04:33:14;;;;;;;;;1.00;1.00;;;;;11.00;64.53;101018.72;5062492;28;45295;-45
2021/05/23 04:35:39;;;;;;;;;2.50;2.00;;;;;10.96;65.09;101029.31;5062339;28;46294;-44
2021/05/23 04:38:05;;;;;;;;;2.00;2.00;;;;;10.90;65.41;101030.25;5062570;28;45264;-43
2021/05/23 04:40:31;;;;;;;;;1.25;1.25;;;;;10.82;64.97;101038.22;5062300;28;45341;-43
2021/05/23 04:42:57;;;;;;;;;1.00;1.00;;;;;10.71;65.54;101040.94;5062326;28;45419;-44
2021/05/23 04:45:22;;;;;;;;;0.25;0.25;;;;;10.63;66.07;101048.06;5060778;28;46394;-44
2021/05/23 04:47:49;;;;;;;;;1.25;1.00;;;;;10.63;66.12;101039.28;5062526;28;45626;-45
2021/05/23 04:50:14;;;;;;;;;1.00;1.00;;;;;10.63;65.82;101052.44;5060542;28;45446;-43
2021/05/23 04:52:40;;;;;;;;;1.50;1.50;;;;;10.62;66.08;101051.56;5060853;28;45293;-44
2021/05/23 04:55:06;;;;;;;;;1.00;0.75;;;;;10.64;66.13;101070.84;5060502;28;47293;-43
2021/05/23 04:57:32;;;;;;;;;1.00;1.00;;;;;10.61;66.11;101062.09;5062422;28;45536;-43
2021/05/23 04:59:58;;;;;;;;;1.50;1.50;;;;;10.69;66.00;101071.66;5044112;28;45470;-44
2021/05/23 05:02:23;;;;;;;;;1.00;1.00;;;;;10.77;66.09;101060.16;5060702;28;45863;-44
2021/05/23 05:04:49;;;;;;;;;1.00;1.00;;;;;10.83;65.68;101060.13;5061895;28;45590;-42
2021/05/23 05:07:14;;;;;;;;;2.50;2.50;;;;;10.84;65.78;101059.22;5061988;28;45265;-44
2021/05/23 05:09:40;;;;;;;;;1.00;1.00;;;;;10.91;65.70;101062.69;5062410;28;45376;-42
2021/05/23 05:12:06;;;;;;;;;3.00;2.00;;;;;10.85;65.55;101068.88;5074943;28;45490;-43
2021/05/23 05:14:31;;;;;;;;;3.00;3.00;;;;;10.78;65.62;101059.28;5061618;28;47170;-42
2021/05/23 05:16:56;;;;;;;;;2.25;2.25;;;;;10.80;65.16;101068.91;5043442;28;45455;-44
2021/05/23 05:19:22;;;;;;;;;3.25;3.00;;;;;10.77;65.46;101068.94;5043693;28;45352;-42
2021/05/23 05:21:48;;;;;;;;;1.75;1.00;;;;;10.72;65.69;101081.28;5071855;28;45464;-42
2021/05/23 05:24:14;;;;;;;;;1.75;1.75;;;;;10.72;65.63;101074.25;5061718;28;45209;-44
2021/05/23 05:26:40;;;;;;;;;1.00;1.00;;;;;10.80;65.64;101073.31;5061323;28;45272;-43
2021/05/23 05:29:06;;;;;;;;;4.25;1.50;;;;;10.91;65.57;101084.59;5061614;28;45442;-44
2021/05/23 05:31:32;;;;;;;;;3.00;3.00;;;;;10.93;65.12;101085.44;5061701;28;45303;-42
2021/05/23 05:33:57;;;;;;;;;3.25;3.00;;;;;10.95;64.83;101073.13;5061330;28;46025;-43
2021/05/23 05:36:23;;;;;;;;;1.75;1.00;;;;;10.93;65.05;101081.94;5061735;28;45391;-45
2021/05/23 05:38:49;;;;;;;;;1.00;1.00;;;;;10.96;65.22;101092.44;5061549;28;45470;-45
2021/05/23 05:41:15;;;;;;;;;1.00;1.00;;;;;10.97;64.90;101089.78;5061297;28;45603;-45
2021/05/23 05:43:41;;;;;;;;;1.00;1.00;;;;;10.95;64.88;101099.44;5060938;28;45425;-43
2021/05/23 05:46:07;;;;;;;;;3.00;3.00;;;;;10.91;65.02;101099.50;5061244;28;45474;-43
2021/05/23 05:48:32;;;;;;;;;2.50;2.00;;;;;10.89;64.96;101099.50;5061339;28;45347;-44
2021/05/23 05:50:58;;;;;;;;;1.00;1.00;;;;;10.88;64.82;101106.53;5043409;28;45257;-45
2021/05/23 05:53:23;;;;;;;;;1.75;1.75;;;;;10.90;64.74;101101.25;5061034;28;45353;-43
2021/05/23 05:55:48;;;;;;;;;2.50;2.50;;;;;10.88;64.93;101097.78;5061147;28;45260;-46
2021/05/23 05:58:14;;;;;;;;;2.00;2.00;;;;;10.82;65.05;101097.84;5061126;28;45754;-44
2021/05/23 06:00:39;;;;;;;;;3.00;2.00;;;;;10.83;64.78;101096.91;5060338;28;45212;-45
2021/05/23 06:03:05;;;;;;;;;2.00;2.00;;;;;10.89;64.68;101107.38;5059612;28;47115;-43
2021/05/23 06:05:30;;;;;;;;;4.00;2.50;;;;;10.98;64.61;101106.41;5043135;28;45275;-47
2021/05/23 06:07:56;;;;;;;;;2.50;2.50;;;;;10.99;64.81;101103.81;5061021;28;45220;-43
2021/05/23 06:10:22;;;;;;;;;5.00;3.50;;;;;11.02;64.39;101105.53;5067077;28;45246;-44
2021/05/23 06:12:48;;;;;;;;;2.25;2.00;;;;;11.01;64.43;101106.41;5067596;28;46435;-43
2021/05/23 06:15:13;;;;;;;;;3.75;1.50;;;;;11.05;64.54;101105.47;5060844;28;45311;-46
2021/05/23 06:17:39;;;;;;;;;1.25;1.00;;;;;11.04;64.64;101112.50;5060748;28;45314;-46
2021/05/23 06:20:06;;;;;;;;;1.75;1.75;;;;;11.12;64.36;101106.28;5045607;28;45434;-45
2021/05/23 06:22:31;;;;;;;;;2.00;1.00;;;;;11.17;64.04;101114.97;5067546;28;45278;-43
2021/05/23 06:24:57;;;;;;;;;1.00;1.00;;;;;11.27;63.79;101110.50;5060502;28;45265;-43
2021/05/23 06:27:22;;;;;;;;;1.25;1.25;;;;;11.30;63.71;101113.97;5060656;28;45440;-43
2021/05/23 06:29:48;;;;;;;;;1.00;1.00;;;;;11.30;63.54;101106.06;5042693;28;45227;-44
2021/05/23 06:32:14;;;;;;;;;3.75;2.00;;;;;11.36;63.42;101111.28;5042570;28;48111;-46
2021/05/23 06:34:39;;;;;;;;;1.00;1.00;;;;;11.41;63.32;101108.59;5042376;28;45309;-45
2021/05/23 06:37:05;;;;;;;;;1.00;1.00;;;;;11.37;63.20;101115.66;5060793;28;45216;-47
2021/05/23 06:39:31;;;;;;;;;5.00;1.00;;;;;11.44;62.83;101112.94;5060496;28;45214;-43
2021/05/23 06:41:56;;;;;;;;;1.00;1.00;;;;;11.42;63.49;101115.63;5058785;28;46485;-44
2021/05/23 06:44:22;;;;;;;;;4.00;1.00;;;;;11.48;63.18;101119.91;5060495;28;45201;-45
2021/05/23 06:46:47;;;;;;;;;2.50;2.00;;;;;11.53;62.79;101108.47;5060566;28;45398;-44
2021/05/23 06:49:13;;;;;;;;;2.25;2.25;;;;;11.65;62.94;101114.47;5060229;28;45410;-45
2021/05/23 06:51:38;;;;;;;;;3.00;2.00;;;;;11.73;62.82;101125.75;5042084;28;46054;-44
2021/05/23 06:54:05;;;;;;;;;3.50;2.50;;;;;11.67;62.67;101121.44;5060101;28;45367;-45
2021/05/23 06:56:30;;;;;;;;;5.00;2.00;;;;;11.63;62.84;101110.97;5060169;28;45410;-43
2021/05/23 06:58:56;;;;;;;;;2.00;2.00;;;;;11.68;62.57;101127.56;5059792;28;45316;-43
2021/05/23 07:01:21;;;;;;;;;3.00;2.00;;;;;11.79;62.67;101109.00;5060226;28;45390;-44
2021/05/23 07:03:46;;;;;;;;;2.00;1.00;;;;;11.78;62.40;101116.03;5060038;28;45398;-44
2021/05/23 07:06:12;;;;;;;;;1.00;1.00;;;;;11.90;62.31;101117.63;5060391;28;45336;-48
2021/05/23 07:08:38;;;;;;;;;3.00;3.00;;;;;11.97;62.19;101119.31;5059838;28;45236;-45
2021/05/23 07:11:03;;;;;;;;;3.25;1.25;;;;;12.05;61.90;101118.34;5067377;28;47250;-44
2021/05/23 07:13:28;;;;;;;;;2.00;2.00;;;;;12.16;61.70;101129.59;5078584;28;45174;-43
2021/05/23 07:15:54;;;;;;;;;1.75;1.00;;;;;12.16;61.58;101134.84;5080128;28;45184;-44
2021/05/23 07:18:20;;;;;;;;;2.00;2.00;;;;;12.25;60.99;101142.66;5062083;28;45202;-45
2021/05/23 07:20:46;;;;;;;;;4.00;2.00;;;;;12.32;60.34;101140.78;5080036;28;45209;-45
2021/05/23 07:23:12;;;;;;;;;1.50;1.25;;;;;12.30;60.47;101148.72;5061681;28;45309;-43
2021/05/23 07:25:38;;;;;;;;;1.25;1.25;;;;;12.22;60.33;101140.03;5060064;28;45339;-45
2021/05/23 07:28:05;;;;;;;;;5.00;2.00;;;;;12.15;60.29;101131.34;5058159;28;45437;-45
2021/05/23 07:30:30;;;;;;;;;1.25;1.25;;;;;12.15;60.25;101144.53;5058523;28;45382;-45
2021/05/23 07:32:56;;;;;;;;;2.00;2.00;;;;;12.23;60.25;101149.69;5059621;28;45504;-44
2021/05/23 07:35:21;;;;;;;;;1.75;1.75;;;;;12.30;60.38;101145.19;5059921;28;45536;-44
2021/05/23 07:37:47;;;;;;;;;2.00;2.00;;;;;12.38;60.36;101139.78;5059629;28;45352;-45
2021/05/23 07:40:13;;;;;;;;;3.00;3.00;;;;;12.54;60.08;101143.06;5041402;28;47239;-47
2021/05/23 07:42:39;;;;;;;;;2.50;2.00;;;;;12.62;59.89;101147.31;5059413;28;45447;-45
2021/05/23 07:45:05;;;;;;;;;1.50;1.50;;;;;12.52;59.86;101148.38;5059981;28;45211;-44
2021/05/23 07:47:31;;;;;;;;;0.75;0.75;;;;;12.42;60.19;101149.41;5059316;28;45465;-44
2021/05/23 07:49:57;;;;;;;;;1.25;1.25;;;;;12.49;60.08;101149.28;5059585;28;46125;-47
2021/05/23 07:52:22;;;;;;;;;2.00;2.00;;;;;12.43;60.04;101144.13;5058147;28;45331;-45
2021/05/23 07:54:48;;;;;;;;;3.50;3.50;;;;;12.51;59.81;101144.88;5059541;28;45292;-45
2021/05/23 07:57:13;;;;;;;;;3.00;2.75;;;;;12.56;59.79;101149.19;5059310;28;45530;-45
2021/05/23 07:59:39;;;;;;;;;3.75;3.00;;;;;12.55;59.64;101150.09;5041457;28;45335;-47
2021/05/23 08:02:04;;;;;;;;;4.00;2.00;;;;;12.53;59.79;101147.50;5057963;28;45333;-45
2021/05/23 08:04:30;;;;;;;;;1.25;1.25;;;;;12.79;59.65;101156.72;5059677;28;45300;-45
2021/05/23 08:06:55;;;;;;;;;4.50;2.50;;;;;13.12;59.11;101162.34;5059213;28;45311;-48
2021/05/23 08:09:21;;;;;;;;;2.75;2.75;;;;;13.32;58.57;101162.81;5059419;28;46142;-45
2021/05/23 08:11:46;;;;;;;;;4.00;4.00;;;;;13.33;57.86;101175.13;5071084;28;46111;-45
2021/05/23 08:14:13;;;;;;;;;2.00;2.00;;;;;13.43;57.62;101177.63;5058269;28;45347;-48
2021/05/23 08:16:39;;;;;;;;;3.00;3.00;;;;;13.60;57.21;101179.94;5057729;28;45437;-44
2021/05/23 08:19:04;;;;;;;;;2.00;1.00;;;;;13.84;57.08;101181.22;5059112;28;45971;-45
2021/05/23 08:21:34;;;;;;;;;5.25;2.50;;;;;13.87;56.69;101190.84;5067838;28;45240;-44
2021/05/23 08:24:00;;;;;;;;;3.00;3.00;;;;;13.93;55.71;101185.44;5059924;28;45396;-44
2021/05/23 08:26:25;;;;;;;;;2.25;2.25;;;;;13.96;55.82;101191.53;5062119;28;45336;-46
2021/05/23 08:28:50;;;;;;;;;2.00;2.00;;;;;13.97;55.65;101187.09;5062400;28;45432;-45
2021/05/23 08:31:16;;;;;;;;;2.50;2.50;;;;;13.86;55.16;101195.25;5062491;28;45577;-44
2021/05/23 08:33:42;;;;;;;;;3.25;3.00;;;;;13.65;55.39;101191.28;5061239;28;45252;-43
2021/05/23 08:36:07;;;;;;;;;1.00;1.00;;;;;13.42;55.79;101189.97;5062307;28;45218;-43
2021/05/23 08:38:33;;;;;;;;;3.00;2.00;;;;;13.37;56.17;101180.34;5062529;28;45273;-44
2021/05/23 08:40:58;;;;;;;;;4.00;2.00;;;;;13.39;56.27;101186.50;5062017;28;45410;-43
2021/05/23 08:43:26;;;;;;;;;3.50;3.50;;;;;13.38;56.20;101182.13;5061015;28;45418;-43
2021/05/23 08:45:52;;;;;;;;;3.25;3.25;;;;;13.36;55.83;101179.47;5062073;28;45454;-44
2021/05/23 08:48:19;;;;;;;;;1.50;1.00;;;;;13.30;55.69;101180.44;5062026;28;46652;-45
2021/05/23 08:50:46;;;;;;;;;4.00;4.00;;;;;13.48;55.80;101173.13;5044154;28;45498;-43
2021/05/23 08:53:12;;;;;;;;;3.75;2.25;;;;;13.55;54.86;101150.13;5062434;28;45355;-45
2021/05/23 08:55:38;;;;;;;;;2.00;2.00;;;;;13.65;54.13;101165.72;5043696;28;45198;-45
2021/05/23 08:58:04;;;;;;;;;1.50;1.50;;;;;13.54;54.35;101173.00;5061928;28;46151;-44
2021/05/23 09:00:31;;;;;;;;;5.00;2.00;;;;;13.63;54.32;101169.31;5062017;28;45434;-45
2021/05/23 09:02:58;;;;;;;;;2.00;2.00;;;;;13.78;54.33;101162.84;5044117;28;45518;-43
2021/05/23 09:05:28;;;;;;;;;3.25;3.25;;;;;13.90;53.66;101164.34;5061904;28;45335;-44
2021/05/23 09:07:53;;;;;;;;;3.50;2.50;;;;;13.86;53.71;101171.50;5061746;28;46085;-46
2021/05/23 09:10:23;;;;;;;;;2.00;1.75;;;;;13.95;53.04;101173.06;5067506;28;45422;-48
2021/05/23 09:12:49;;;;;;;;;1.00;1.00;;;;;13.90;52.25;101159.94;5068858;28;45422;-44
2021/05/23 09:15:15;;;;;;;;;2.75;1.00;;;;;14.08;51.79;101171.03;5061829;28;45375;-42
2021/05/23 09:17:40;;;;;;;;;1.75;1.75;;;;;14.39;51.33;101152.69;5061502;28;46132;-45
2021/05/23 09:20:06;;;;;;;;;3.00;3.00;;;;;14.61;50.66;101187.41;5046511;28;45425;-45
2021/05/23 09:22:32;;;;;;;;;1.00;1.00;;;;;14.64;50.82;101170.63;5068654;28;45534;-44
2021/05/23 09:25:04;;;;;;;;;4.00;2.25;;;;;14.56;51.17;101170.78;5061632;28;45238;-45
2021/05/23 09:27:32;;;;;;;;;2.00;2.00;;;;;14.55;50.91;101158.50;5061115;28;46384;-51
2021/05/23 09:30:19;;;;;;;;;2.50;2.50;;;;;14.74;50.20;101168.63;5043858;28;45384;-45
2021/05/23 09:32:46;;;;;;;;;2.00;2.00;;;;;14.75;49.07;101186.25;5060303;28;45256;-44
2021/05/23 09:35:14;;;;;;;;;3.25;2.75;;;;;14.86;49.04;101178.91;5060163;28;45175;-44
2021/05/23 09:37:41;;;;;;;;;5.00;2.75;;;;;15.16;49.12;101175.53;5043101;28;48131;-43
2021/05/23 09:40:20;;;;;;;;;4.00;3.00;;;;;15.54;48.21;101173.63;5061296;28;45336;-46
2021/05/23 09:42:47;;;;;;;;;2.50;2.25;;;;;15.74;47.06;101159.78;5060014;28;45233;-44
2021/05/23 09:45:14;;;;;;;;;2.00;1.50;;;;;15.95;46.38;101170.69;5061345;28;45359;-46
2021/05/23 09:47:56;;;;;;;;;2.25;0.50;;;;;16.03;46.58;101169.56;5061215;28;45398;-44
2021/05/23 09:50:40;;;;;;;;;3.00;2.00;;;;;15.75;45.67;101170.34;5061016;28;45307;-43
2021/05/23 09:53:18;;;;;;;;;0.50;0.00;;;;;15.78;44.85;101177.34;5043502;28;45284;-43
2021/05/23 09:55:55;;;;;;;;;2.75;2.00;;;;;16.03;46.11;101168.69;5059676;28;46157;-44
2021/05/23 09:58:31;;;;;;;;;2.00;1.00;;;;;16.17;46.18;101171.78;5060744;28;45516;-45
2021/05/23 10:00:58;;;;;;;;;4.25;2.00;;;;;16.31;45.69;101166.03;5042806;28;45590;-45
2021/05/23 10:03:28;;;;;;;;;1.00;1.00;;;;;16.27;44.38;101167.06;5061081;28;45271;-44
2021/05/23 10:05:54;;;;;;;;;1.25;1.00;;;;;16.24;44.68;101176.00;5042887;28;45458;-44
2021/05/23 10:08:20;;;;;;;;;2.00;2.00;;;;;16.27;44.55;101177.69;5060587;28;46383;-44
2021/05/23 10:10:47;;;;;;;;;2.25;1.00;;;;;16.33;43.62;101188.09;5052310;28;45320;-43
2021/05/23 10:13:13;;;;;;;;;1.75;1.75;;;;;16.49;44.01;101172.56;5064399;28;45430;-44
2021/05/23 10:15:40;;;;;;;;;3.50;2.00;;;;;16.67;42.97;101175.56;5060857;28;45258;-44
2021/05/23 10:18:07;;;;;;;;;0.00;0.00;;;;;16.79;43.02;101176.91;5060346;28;46086;-43
2021/05/23 10:20:34;;;;;;;;;2.00;2.00;;;;;16.98;43.32;101174.53;5049577;28;45359;-44
2021/05/23 10:23:06;;;;;;;;;1.25;1.25;;;;;17.34;41.91;101182.16;5062806;28;45217;-47
2021/05/23 10:25:34;;;;;;;;;2.25;0.75;;;;;17.89;41.30;101173.09;5062667;28;45243;-48
2021/05/23 10:28:01;;;;;;;;;1.75;1.00;;;;;18.90;40.69;101184.19;5080528;28;45475;-44
2021/05/23 10:30:27;;;;;;;;;1.75;1.50;;;;;20.94;40.02;101164.16;5077727;28;45422;-45
2021/05/23 10:32:52;;;;;;;;;2.25;1.00;;;;;21.84;37.74;101174.66;5080651;28;45311;-46
2021/05/23 10:35:24;;;;;;;;;0.75;0.75;;;;;25.26;32.16;101164.41;5080562;28;45165;-46
2021/05/23 10:37:51;;;;;;;;;2.25;1.00;;;;;28.45;31.06;101179.00;5078017;28;46145;-43
2021/05/23 10:40:20;;;;;;;;;0.00;0.00;;;;;31.42;22.46;101200.56;5080281;28;45345;-46
2021/05/23 10:42:50;;;;;;;;;1.00;1.00;;;;;32.95;23.13;101171.09;5080399;28;45418;-45
2021/05/23 10:45:31;;;;;;;;;1.00;1.00;;;;;31.27;21.85;101192.91;5073237;27;45812;-43
2021/05/23 10:47:57;;;;;;;;;2.00;0.00;;;;;28.05;22.88;101168.78;5050352;28;48009;-43
2021/05/23 10:50:34;;;;;;;;;1.25;1.25;;;;;28.00;24.38;101190.72;5080443;28;45446;-42
2021/05/23 10:53:00;;;;;;;;;1.00;1.00;;;;;31.11;24.16;101190.81;5080630;28;45454;-43
2021/05/23 10:55:26;;;;;;;;;0.00;0.00;;;;;28.69;24.15;101188.72;5080070;28;45326;-42
2021/05/23 10:57:54;;;;;;;;;2.25;1.00;;;;;31.53;22.96;101188.69;5062063;28;46107;-50
2021/05/23 11:00:19;;;;;;;;;3.00;0.50;;;;;33.94;20.17;101182.59;5080482;28;45220;-43
2021/05/23 11:02:46;;;;;;;;;1.50;1.25;;;;;31.64;21.04;101169.53;5080398;27;45222;-43
2021/05/23 11:05:30;;;;;;;;;0.00;0.00;;;;;29.08;20.34;101199.88;5080250;28;45517;-44
2021/05/23 11:08:01;;;;;;;;;0.00;0.00;;;;;26.34;23.44;101170.19;5079783;28;46429;-43
2021/05/23 11:10:32;;;;;;;;;0.00;0.00;;;;;24.45;26.23;101174.28;5080327;28;45359;-45
2021/05/23 11:12:59;;;;;;;;;1.00;1.00;;;;;23.42;27.18;101176.31;5065528;28;45382;-45
2021/05/23 11:15:26;;;;;;;;;0.50;0.50;;;;;22.35;28.78;101172.69;5059879;28;45307;-46
2021/05/23 11:17:54;;;;;;;;;2.00;1.75;;;;;21.42;29.88;101183.06;5057902;28;47132;-44
2021/05/23 11:20:21;;;;;;;;;1.50;1.00;;;;;20.71;30.59;101157.28;5049240;28;45275;-45
2021/05/23 11:23:02;;;;;;;;;1.00;1.00;;;;;20.14;31.68;101174.25;5058428;28;45274;-44